Time;durP1;ratioP1;P1;durP2;ratioP2;P2;SDS_P1;SDS_P2;PMS_P1;PMS_P2;Temp;Humidity;BMP_temperature;BMP_pressure;BME280_temperature;BME280_humidity;BME280_pressure;Samples;Min_cycle;Max_cycle;Signal;HPM_P1;HPM_P2
2021/12/09 00:01:39;;;;;;;9.40;1.23;;;;;;;12.41;44.79;100012.41;4939022;29;20456;-60
2021/12/09 00:04:07;;;;;;;3.20;1.17;;;;;;;12.42;44.86;100018.63;4939341;29;20380;-60
2021/12/09 00:06:34;;;;;;;6.30;1.35;;;;;;;12.32;44.79;99997.25;4922073;29;20549;-60
2021/12/09 00:09:07;;;;;;;9.55;2.08;;;;;;;12.42;44.31;100013.25;4937897;29;20030;-60
2021/12/09 00:11:41;;;;;;;4.80;1.63;;;;;;;12.39;44.35;100013.56;4918351;29;20052;-60
2021/12/09 00:14:07;;;;;;;3.75;1.48;;;;;;;12.32;44.48;100013.38;4920026;29;20048;-60
2021/12/09 00:16:32;;;;;;;5.15;0.98;;;;;;;12.35;44.46;100014.88;4903049;29;20051;-60
2021/12/09 00:18:59;;;;;;;2.28;1.25;;;;;;;12.34;44.98;100016.72;4919969;29;20071;-60
2021/12/09 00:21:25;;;;;;;7.72;1.98;;;;;;;12.35;44.98;100012.19;4920150;29;20433;-61
2021/12/09 00:23:50;;;;;;;4.10;1.35;;;;;;;12.32;44.98;100009.81;4918679;29;20042;-60
2021/12/09 00:26:15;;;;;;;3.55;1.10;;;;;;;12.31;45.06;100008.97;4918601;29;20534;-60
2021/12/09 00:28:41;;;;;;;8.40;1.75;;;;;;;12.30;44.89;100026.13;4919786;29;20051;-60
2021/12/09 00:31:07;;;;;;;13.20;1.73;;;;;;;12.27;44.42;100011.16;4919657;29;20071;-60
2021/12/09 00:33:32;;;;;;;5.40;1.52;;;;;;;12.24;44.44;100008.81;4919734;29;20042;-60
2021/12/09 00:36:00;;;;;;;1.20;1.10;;;;;;;12.21;44.69;100011.81;4919556;29;20397;-61
2021/12/09 00:38:38;;;;;;;3.90;1.83;;;;;;;12.13;45.08;99998.34;4918369;29;20473;-60
2021/12/09 00:41:09;;;;;;;4.90;1.63;;;;;;;12.18;44.99;100022.84;4918492;29;20115;-60
2021/12/09 00:43:35;;;;;;;7.95;1.95;;;;;;;12.17;44.65;100026.53;4919563;29;20402;-60
2021/12/09 00:46:00;;;;;;;5.68;1.50;;;;;;;12.14;45.13;100024.16;4919778;29;20115;-60
2021/12/09 00:48:27;;;;;;;4.75;1.45;;;;;;;12.14;44.58;100023.34;4919068;29;20434;-60
2021/12/09 00:50:54;;;;;;;7.45;1.83;;;;;;;12.11;44.47;100024.50;4919366;29;20032;-60
2021/12/09 00:53:19;;;;;;;2.80;1.40;;;;;;;12.09;45.20;100023.81;4917930;29;20119;-60
2021/12/09 00:55:45;;;;;;;6.25;1.75;;;;;;;12.08;45.09;100023.97;4917904;29;20119;-60
2021/12/09 00:58:10;;;;;;;4.75;1.60;;;;;;;12.04;45.06;100020.75;4919363;29;20091;-60
2021/12/09 01:00:36;;;;;;;4.25;1.05;;;;;;;12.02;45.29;100025.44;4919082;29;20488;-60
2021/12/09 01:03:01;;;;;;;5.43;1.30;;;;;;;11.98;44.56;100021.38;4918622;29;20146;-60
2021/12/09 01:05:27;;;;;;;3.00;1.30;;;;;;;11.96;44.80;100015.34;4919089;29;20043;-60
2021/12/09 01:07:53;;;;;;;10.95;1.48;;;;;;;11.96;45.62;100018.03;4918861;29;20051;-61
2021/12/09 01:10:18;;;;;;;1.67;1.23;;;;;;;11.96;45.10;100023.41;4920108;29;20032;-60
2021/12/09 01:12:45;;;;;;;4.72;1.77;;;;;;;11.99;44.64;100023.09;4937764;29;20171;-60
2021/12/09 01:15:12;;;;;;;5.18;1.30;;;;;;;12.00;44.48;100030.16;4920881;29;20477;-60
2021/12/09 01:17:38;;;;;;;6.07;1.55;;;;;;;12.02;44.74;100028.13;4920734;29;20473;-60
2021/12/09 01:20:05;;;;;;;8.50;1.50;;;;;;;12.04;44.95;100020.75;4937661;29;20031;-61
2021/12/09 01:22:38;;;;;;;3.20;1.40;;;;;;;12.04;44.87;100026.13;4919935;29;20043;-60
2021/12/09 01:25:05;;;;;;;1.75;1.58;;;;;;;12.03;45.38;100029.81;4937844;29;20055;-60
2021/12/09 01:27:33;;;;;;;7.07;1.60;;;;;;;12.02;45.19;100029.97;4920798;29;20397;-61
2021/12/09 01:30:06;;;;;;;8.77;1.45;;;;;;;12.00;44.67;100031.97;4937605;29;20441;-59
2021/12/09 01:32:31;;;;;;;5.00;1.27;;;;;;;11.98;44.84;100037.50;4921702;29;20024;-60
2021/12/09 01:34:57;;;;;;;7.72;1.60;;;;;;;11.97;44.82;100038.50;4937467;29;20040;-60
2021/12/09 01:37:22;;;;;;;4.45;1.30;;;;;;;11.94;45.03;100041.50;4920377;29;20074;-60
2021/12/09 01:39:47;;;;;;;8.20;1.77;;;;;;;11.90;45.22;100048.16;4937239;29;20031;-60
2021/12/09 01:42:13;;;;;;;5.95;1.45;;;;;;;11.89;45.15;100048.34;4904319;29;20516;-60
2021/12/09 01:44:38;;;;;;;4.35;1.25;;;;;;;11.88;45.20;100058.22;4937250;29;20042;-60
2021/12/09 01:47:04;;;;;;;5.22;2.15;;;;;;;11.87;45.03;100055.69;4937326;29;20066;-60
2021/12/09 01:49:29;;;;;;;3.78;2.00;;;;;;;11.86;45.00;100060.22;4920141;29;20031;-60
2021/12/09 01:51:54;;;;;;;4.00;1.52;;;;;;;11.84;44.72;100046.09;4936881;29;20106;-60
2021/12/09 01:54:23;;;;;;;4.93;1.27;;;;;;;11.84;45.10;100056.00;4937408;29;20043;-61
2021/12/09 01:56:48;;;;;;;3.60;1.30;;;;;;;11.83;45.35;100049.81;4937097;29;20559;-60
2021/12/09 01:59:14;;;;;;;8.18;2.05;;;;;;;11.82;44.94;100053.47;4904131;29;20043;-60
2021/12/09 02:01:39;;;;;;;8.60;1.50;;;;;;;11.81;45.44;100046.41;4936924;29;20031;-60
2021/12/09 02:04:06;;;;;;;2.08;1.40;;;;;;;11.83;44.72;100038.22;4920236;29;20059;-60
2021/12/09 02:06:33;;;;;;;9.10;2.13;;;;;;;11.82;44.92;100028.50;4936979;29;20032;-60
2021/12/09 02:08:59;;;;;;;3.40;1.67;;;;;;;11.80;45.22;100039.38;4919930;29;20114;-60
2021/12/09 02:11:24;;;;;;;4.82;1.92;;;;;;;11.78;45.21;100036.00;4919259;29;20143;-60
2021/12/09 02:13:52;;;;;;;5.07;1.95;;;;;;;11.76;45.15;100037.16;4919754;29;20115;-60
2021/12/09 02:16:17;;;;;;;5.82;1.80;;;;;;;11.73;45.06;100032.94;4919780;29;20028;-61
2021/12/09 02:18:43;;;;;;;2.38;1.35;;;;;;;11.71;45.16;100034.94;4919928;29;20499;-60
2021/12/09 02:21:17;;;;;;;5.65;1.83;;;;;;;11.68;45.43;100041.44;4936956;29;20038;-60
2021/12/09 02:23:45;;;;;;;6.50;1.75;;;;;;;11.68;44.83;100035.22;4936692;29;20055;-60
2021/12/09 02:26:12;;;;;;;6.70;1.48;;;;;;;11.67;45.43;100038.91;4919716;29;20374;-60
2021/12/09 02:28:37;;;;;;;2.97;1.50;;;;;;;11.65;45.30;100039.06;4936626;29;20052;-60
2021/12/09 02:31:03;;;;;;;8.20;1.80;;;;;;;11.64;44.80;100034.69;4936725;29;20473;-60
2021/12/09 02:33:29;;;;;;;4.85;1.60;;;;;;;11.69;45.44;100031.59;4941784;29;20050;-60
2021/12/09 02:35:54;;;;;;;1.88;1.10;;;;;;;11.70;45.45;100044.00;4942885;29;20035;-60
2021/12/09 02:38:19;;;;;;;1.63;1.20;;;;;;;11.71;45.71;100039.47;4926085;29;20413;-60
2021/12/09 02:40:48;;;;;;;5.32;1.42;;;;;;;11.72;45.30;100031.28;4909952;29;20032;-60
2021/12/09 02:43:14;;;;;;;3.65;1.30;;;;;;;11.75;45.50;100036.34;4942944;29;20031;-60
2021/12/09 02:45:40;;;;;;;8.20;1.63;;;;;;;11.78;45.10;100040.53;4942873;29;20034;-60
2021/12/09 02:48:06;;;;;;;8.88;1.33;;;;;;;11.78;45.85;100040.53;4942958;29;20107;-60
2021/12/09 02:50:31;;;;;;;8.65;2.13;;;;;;;11.76;45.41;100032.63;4925856;29;20442;-60
2021/12/09 02:52:56;;;;;;;6.93;1.33;;;;;;;11.70;45.07;100033.25;4925617;29;20046;-60
2021/12/09 02:55:22;;;;;;;5.40;1.80;;;;;;;11.72;45.23;100042.00;4942922;29;20034;-61
2021/12/09 02:57:51;;;;;;;6.68;1.70;;;;;;;11.71;45.32;100040.31;4942856;29;20035;-60
2021/12/09 03:00:16;;;;;;;2.50;1.05;;;;;;;11.68;45.44;100035.22;4925627;29;20163;-60
2021/12/09 03:02:44;;;;;;;4.95;1.40;;;;;;;11.67;45.48;100044.25;4942848;29;20023;-61
2021/12/09 03:05:09;;;;;;;4.43;1.55;;;;;;;11.67;45.25;100049.63;4926217;29;20127;-61
2021/12/09 03:07:39;;;;;;;3.28;1.73;;;;;;;11.65;45.40;100041.75;4942800;29;20109;-60
2021/12/09 03:10:21;;;;;;;5.40;1.40;;;;;;;11.66;45.16;100048.81;4925676;29;20060;-60
2021/12/09 03:12:49;;;;;;;3.73;1.43;;;;;;;11.66;45.01;100050.66;4942838;29;20036;-60
2021/12/09 03:15:16;;;;;;;4.18;1.25;;;;;;;11.62;45.65;100041.22;4925854;29;20031;-61
2021/12/09 03:17:42;;;;;;;2.97;1.50;;;;;;;11.60;45.17;100040.53;4942825;29;20397;-60
2021/12/09 03:20:09;;;;;;;1.38;1.15;;;;;;;11.57;45.23;100048.88;4942890;29;20032;-60
2021/12/09 03:22:35;;;;;;;1.38;0.80;;;;;;;11.57;45.49;100043.53;4925549;29;20425;-60
2021/12/09 03:25:01;;;;;;;5.90;1.67;;;;;;;11.56;45.71;100048.03;4925463;29;20028;-60
2021/12/09 03:27:26;;;;;;;6.20;1.55;;;;;;;11.56;45.43;100050.72;4925630;29;20027;-60
2021/12/09 03:29:52;;;;;;;6.25;1.30;;;;;;;11.53;45.50;100047.53;4942499;29;20031;-60
2021/12/09 03:32:19;;;;;;;6.13;1.30;;;;;;;11.52;45.58;100051.19;4942172;29;20401;-60
2021/12/09 03:34:45;;;;;;;4.38;1.70;;;;;;;11.47;45.03;100046.28;4942370;29;20027;-61
2021/12/09 03:37:17;;;;;;;5.47;1.52;;;;;;;11.49;45.43;100056.88;4942389;29;20377;-60
2021/12/09 03:39:44;;;;;;;6.00;2.03;;;;;;;11.49;45.44;100051.50;4942449;29;20020;-60
2021/12/09 03:42:13;;;;;;;4.18;2.08;;;;;;;11.49;45.55;100051.50;4942543;29;20035;-60
2021/12/09 03:44:39;;;;;;;2.60;1.35;;;;;;;11.48;45.62;100061.38;4939387;29;20027;-60
2021/12/09 03:47:07;;;;;;;6.88;1.83;;;;;;;11.51;45.67;100062.91;4922485;29;20027;-60
2021/12/09 03:49:32;;;;;;;7.45;1.20;;;;;;;11.53;45.22;100068.97;4939500;29;20019;-60
2021/12/09 03:51:58;;;;;;;4.60;1.70;;;;;;;11.53;45.48;100058.25;4939333;29;20086;-60
2021/12/09 03:54:24;;;;;;;5.55;1.10;;;;;;;11.53;45.42;100068.97;4939667;29;20055;-60
2021/12/09 03:56:50;;;;;;;2.38;1.20;;;;;;;11.55;45.33;100067.84;4939488;29;20028;-60
2021/12/09 03:59:15;;;;;;;3.78;1.00;;;;;;;11.56;45.18;100068.66;4939331;29;20024;-60
2021/12/09 04:01:42;;;;;;;5.07;1.50;;;;;;;11.56;45.60;100071.31;4922493;29;20055;-60
2021/12/09 04:04:08;;;;;;;2.55;1.20;;;;;;;11.53;45.29;100074.34;4939471;29;20121;-61
2021/12/09 04:06:33;;;;;;;5.05;1.70;;;;;;;11.54;45.57;100076.00;4921885;29;20032;-60
2021/12/09 04:08:59;;;;;;;6.00;1.40;;;;;;;11.54;45.21;100087.59;4938611;29;20028;-60
2021/12/09 04:11:25;;;;;;;8.05;1.55;;;;;;;11.52;45.68;100088.75;4902889;29;20062;-60
2021/12/09 04:13:51;;;;;;;2.28;1.50;;;;;;;11.48;45.55;100084.66;4918888;29;20059;-60
2021/12/09 04:16:16;;;;;;;7.30;1.58;;;;;;;11.47;45.38;100093.72;4918669;29;20400;-60
2021/12/09 04:18:42;;;;;;;4.95;1.30;;;;;;;11.44;45.36;100092.19;4919607;29;20024;-60
2021/12/09 04:21:08;;;;;;;4.75;1.63;;;;;;;11.37;45.63;100092.94;4919603;29;20095;-60
2021/12/09 04:23:33;;;;;;;9.88;2.60;;;;;;;11.32;45.81;100087.19;4919636;29;20036;-60
2021/12/09 04:25:59;;;;;;;5.95;1.85;;;;;;;11.30;45.37;100095.41;4919545;29;20036;-60
2021/12/09 04:28:25;;;;;;;2.38;1.50;;;;;;;11.28;45.70;100100.06;4919705;29;20032;-60
2021/12/09 04:30:52;;;;;;;4.78;1.45;;;;;;;11.28;45.80;100091.19;4919677;29;20040;-60
2021/12/09 04:33:17;;;;;;;9.02;1.63;;;;;;;11.25;46.14;100095.00;4918776;29;20032;-60
2021/12/09 04:35:43;;;;;;;9.25;1.98;;;;;;;11.25;45.51;100091.50;4903368;29;20038;-57
2021/12/09 04:38:09;;;;;;;4.00;1.65;;;;;;;11.25;45.60;100094.16;4918858;29;20020;-61
2021/12/09 04:40:34;;;;;;;5.63;1.75;;;;;;;11.26;45.37;100096.69;4919502;29;20032;-60
2021/12/09 04:43:03;;;;;;;7.30;1.90;;;;;;;11.28;45.72;100094.69;4919595;29;20028;-60
2021/12/09 04:45:30;;;;;;;8.50;1.70;;;;;;;11.20;46.17;100086.56;4919422;29;20040;-60
2021/12/09 04:47:56;;;;;;;4.10;1.65;;;;;;;11.29;45.42;100098.22;4919130;29;20063;-60
2021/12/09 04:50:21;;;;;;;2.35;1.40;;;;;;;11.32;45.40;100108.63;4919517;29;20039;-60
2021/12/09 04:52:47;;;;;;;5.28;1.48;;;;;;;11.29;45.18;100103.59;4902099;29;20441;-60
2021/12/09 04:55:12;;;;;;;4.07;1.27;;;;;;;11.31;45.65;100101.59;4901921;29;20035;-58
2021/12/09 04:57:39;;;;;;;6.97;1.50;;;;;;;11.36;45.66;100110.03;4902493;29;20028;-57
2021/12/09 05:00:08;;;;;;;2.47;1.15;;;;;;;11.37;45.47;100100.97;4919545;29;20076;-58
2021/12/09 05:02:58;;;;;;;6.18;1.40;;;;;;;11.36;45.11;100107.34;4919431;29;20028;-57
2021/12/09 05:05:19;;;;;;;4.10;1.13;;;;;;;11.35;45.56;100113.72;4919311;29;20039;-58
2021/12/09 05:07:45;;;;;;;2.90;1.58;;;;;;;11.32;45.49;100104.13;4919231;29;20036;-58
2021/12/09 05:10:11;;;;;;;10.73;1.92;;;;;;;11.29;45.91;100098.22;4920586;29;20370;-57
2021/12/09 05:12:36;;;;;;;3.85;1.63;;;;;;;11.21;45.33;100098.97;4921129;29;20039;-57
2021/12/09 05:15:04;;;;;;;4.45;1.38;;;;;;;11.27;45.81;100111.78;4938051;29;20032;-58
2021/12/09 05:17:29;;;;;;;9.63;1.70;;;;;;;11.25;45.41;100107.56;4921125;29;20037;-57
2021/12/09 05:19:55;;;;;;;7.75;2.20;;;;;;;11.24;46.09;100104.03;4938084;29;20038;-57
2021/12/09 05:22:20;;;;;;;6.88;1.40;;;;;;;11.22;45.70;100107.88;4937929;29;20159;-60
2021/12/09 05:24:49;;;;;;;2.58;1.20;;;;;;;11.18;45.62;100107.31;4937426;29;20036;-58
2021/12/09 05:27:16;;;;;;;4.25;1.55;;;;;;;11.16;45.84;100119.19;4921781;29;20492;-58
2021/12/09 05:29:43;;;;;;;10.20;2.05;;;;;;;11.16;45.61;100119.19;4938022;29;20023;-60
2021/12/09 05:32:11;;;;;;;5.32;1.80;;;;;;;11.16;45.47;100129.91;4938008;29;20103;-58
2021/12/09 05:34:49;;;;;;;3.47;2.08;;;;;;;11.15;45.72;100128.22;4937475;29;20034;-60
2021/12/09 05:37:21;;;;;;;4.45;1.25;;;;;;;11.11;45.81;100131.19;4904571;29;20035;-60
2021/12/09 05:39:47;;;;;;;4.97;2.08;;;;;;;11.07;45.74;100127.16;4937563;29;20456;-60
2021/12/09 05:42:14;;;;;;;5.25;1.70;;;;;;;11.04;45.55;100130.13;4937623;29;20032;-61
2021/12/09 05:44:40;;;;;;;7.90;1.77;;;;;;;11.05;45.77;100134.47;4937034;29;20058;-60
2021/12/09 05:47:06;;;;;;;5.43;1.25;;;;;;;11.02;45.85;100137.47;4904538;29;20062;-61
2021/12/09 05:49:34;;;;;;;5.63;1.45;;;;;;;11.01;46.23;100143.81;4937527;29;20106;-57
2021/12/09 05:51:59;;;;;;;8.63;1.83;;;;;;;10.99;45.89;100145.81;4920352;29;20039;-57
2021/12/09 05:54:25;;;;;;;4.22;1.13;;;;;;;10.98;45.78;100149.47;4920735;29;20043;-58
2021/12/09 05:56:50;;;;;;;3.28;1.85;;;;;;;10.95;45.57;100155.13;4920604;29;20547;-57
2021/12/09 05:59:16;;;;;;;3.92;1.85;;;;;;;10.95;45.24;100155.13;4937382;29;20031;-58
2021/12/09 06:01:41;;;;;;;9.32;2.03;;;;;;;10.95;45.91;100143.56;4937250;29;20028;-58
2021/12/09 06:04:08;;;;;;;8.55;1.90;;;;;;;10.92;45.54;100155.41;4919962;29;20091;-57
2021/12/09 06:06:34;;;;;;;12.35;1.52;;;;;;;10.90;46.32;100152.06;4936413;29;20024;-57
2021/12/09 06:09:00;;;;;;;5.22;1.92;;;;;;;10.87;46.16;100146.97;4919795;29;20027;-57
2021/12/09 06:11:26;;;;;;;6.47;1.45;;;;;;;10.93;45.75;100151.75;4916914;29;20055;-57
2021/12/09 06:13:53;;;;;;;4.32;2.00;;;;;;;10.94;46.47;100152.59;4918192;29;20024;-58
2021/12/09 06:16:19;;;;;;;7.82;2.13;;;;;;;10.97;45.83;100161.16;4917713;29;20031;-60
2021/12/09 06:18:44;;;;;;;3.65;1.25;;;;;;;11.00;45.74;100174.28;4918095;29;20035;-58
2021/12/09 06:21:09;;;;;;;5.65;1.70;;;;;;;11.00;45.90;100176.09;4917713;29;20494;-57
2021/12/09 06:23:35;;;;;;;6.10;1.80;;;;;;;10.99;45.79;100169.06;4917854;29;20116;-57
2021/12/09 06:26:00;;;;;;;8.85;2.22;;;;;;;10.99;45.79;100177.97;4918144;29;20032;-58
2021/12/09 06:28:26;;;;;;;4.70;1.90;;;;;;;10.99;46.14;100175.28;4900666;29;20036;-57
2021/12/09 06:30:52;;;;;;;8.88;1.42;;;;;;;10.98;45.78;100170.91;4917825;29;20036;-58
2021/12/09 06:33:17;;;;;;;8.75;1.52;;;;;;;10.98;45.68;100170.06;4918222;29;20032;-58
2021/12/09 06:35:42;;;;;;;3.22;1.85;;;;;;;10.94;45.39;100163.31;4916757;29;20032;-59
2021/12/09 06:38:12;;;;;;;8.88;2.10;;;;;;;10.91;45.84;100175.19;4918047;29;20505;-57
2021/12/09 06:40:38;;;;;;;3.38;1.67;;;;;;;10.90;45.87;100178.84;4917856;29;20028;-57
2021/12/09 06:43:03;;;;;;;7.97;1.83;;;;;;;10.87;46.20;100170.25;4918065;29;20398;-58
2021/12/09 06:45:29;;;;;;;7.55;2.10;;;;;;;10.82;45.70;100169.84;4917818;29;20062;-57
2021/12/09 06:47:54;;;;;;;5.20;2.42;;;;;;;10.80;46.05;100182.56;4917678;29;20469;-59
2021/12/09 06:50:21;;;;;;;4.97;2.28;;;;;;;10.82;46.32;100186.78;4917567;29;20039;-58
2021/12/09 06:52:47;;;;;;;4.25;2.10;;;;;;;10.79;45.74;100176.34;4917092;29;20047;-57
2021/12/09 06:55:14;;;;;;;6.68;1.80;;;;;;;10.77;46.01;100178.34;4916634;29;20409;-58
2021/12/09 06:57:42;;;;;;;9.05;1.70;;;;;;;10.75;46.50;100180.28;4916116;29;20032;-61
2021/12/09 07:00:10;;;;;;;6.82;2.08;;;;;;;10.75;46.24;100177.63;4916026;29;20028;-58
2021/12/09 07:02:36;;;;;;;6.75;2.20;;;;;;;10.71;45.81;100167.34;4917786;29;20028;-58
2021/12/09 07:05:01;;;;;;;5.40;2.20;;;;;;;10.73;46.04;100171.56;4917806;29;20406;-58
2021/12/09 07:07:27;;;;;;;5.32;2.20;;;;;;;10.74;46.42;100181.31;4918398;29;20043;-58
2021/12/09 07:09:52;;;;;;;3.25;2.00;;;;;;;10.77;46.23;100172.13;4916610;29;20067;-58
2021/12/09 07:12:18;;;;;;;7.35;2.63;;;;;;;10.74;46.54;100173.28;4935346;29;20580;-58
2021/12/09 07:14:44;;;;;;;14.43;2.20;;;;;;;10.76;46.20;100179.31;4936278;29;20162;-58
2021/12/09 07:17:10;;;;;;;7.47;1.90;;;;;;;10.74;46.25;100178.63;4936426;29;20078;-58
2021/12/09 07:19:36;;;;;;;15.50;2.60;;;;;;;10.76;46.31;100190.03;4920704;29;20031;-59
2021/12/09 07:22:03;;;;;;;5.53;2.42;;;;;;;10.76;46.22;100191.84;4923000;29;20036;-58
2021/12/09 07:24:29;;;;;;;8.85;2.65;;;;;;;10.74;46.41;100178.63;4939951;29;20498;-58
2021/12/09 07:26:55;;;;;;;4.50;2.40;;;;;;;10.75;46.49;100185.66;4939729;29;20036;-59
2021/12/09 07:29:20;;;;;;;7.90;2.63;;;;;;;10.75;46.56;100185.66;4939607;29;20034;-59
2021/12/09 07:31:45;;;;;;;9.13;2.58;;;;;;;10.75;46.23;100179.47;4939618;29;20031;-59
2021/12/09 07:34:11;;;;;;;4.05;1.83;;;;;;;10.78;46.11;100185.38;4939444;29;20079;-58
2021/12/09 07:36:36;;;;;;;8.20;2.22;;;;;;;10.80;46.10;100186.09;4939186;29;20040;-59
2021/12/09 07:39:03;;;;;;;6.93;2.55;;;;;;;10.76;45.87;100179.31;4939731;29;20469;-59
2021/12/09 07:41:28;;;;;;;4.80;2.72;;;;;;;10.80;46.45;100185.22;4939465;29;20106;-59
2021/12/09 07:43:53;;;;;;;4.05;2.20;;;;;;;10.81;46.44;100194.94;4939444;29;20466;-59
2021/12/09 07:46:19;;;;;;;8.88;2.63;;;;;;;10.79;46.03;100181.72;4922566;29;20028;-59
2021/12/09 07:48:44;;;;;;;5.65;2.40;;;;;;;10.78;46.30;100179.16;4922418;29;20040;-58
2021/12/09 07:51:10;;;;;;;4.95;2.60;;;;;;;10.81;47.03;100190.44;4939680;29;20039;-59
2021/12/09 07:53:35;;;;;;;5.95;1.90;;;;;;;10.77;46.17;100178.34;4939747;29;20095;-59
2021/12/09 07:56:00;;;;;;;3.92;1.98;;;;;;;10.85;46.33;100197.19;4922332;29;20071;-59
2021/12/09 07:58:26;;;;;;;7.80;2.30;;;;;;;10.85;46.53;100185.63;4939480;29;20032;-59
2021/12/09 08:00:51;;;;;;;5.72;2.30;;;;;;;10.89;46.01;100187.84;4939374;29;20039;-58
2021/12/09 08:03:17;;;;;;;6.90;2.55;;;;;;;10.89;46.22;100187.84;4939477;29;20111;-58
2021/12/09 08:05:45;;;;;;;10.95;4.45;;;;;;;10.95;46.19;100187.28;4939296;29;20027;-59
2021/12/09 08:08:10;;;;;;;11.30;3.30;;;;;;;11.00;46.45;100186.81;4939066;29;20023;-60
2021/12/09 08:10:37;;;;;;;7.53;2.28;;;;;;;11.01;45.64;100192.06;4938816;29;20065;-59
2021/12/09 08:13:03;;;;;;;7.10;2.70;;;;;;;11.03;45.96;100187.38;4938907;29;20039;-59
2021/12/09 08:15:34;;;;;;;5.93;2.38;;;;;;;11.12;46.39;100196.38;4938927;29;20052;-58
2021/12/09 08:18:02;;;;;;;10.63;2.80;;;;;;;11.17;46.10;100195.94;4938853;29;20151;-58
2021/12/09 08:20:29;;;;;;;11.43;2.50;;;;;;;11.14;46.36;100190.88;4938971;29;20036;-58
2021/12/09 08:22:55;;;;;;;4.13;2.25;;;;;;;11.20;46.36;100193.78;4938979;29;20362;-58
2021/12/09 08:25:21;;;;;;;5.15;2.63;;;;;;;11.20;46.80;100190.25;4939215;29;20032;-59
2021/12/09 08:27:47;;;;;;;12.27;3.17;;;;;;;11.19;46.52;100188.59;4921944;29;20031;-58
2021/12/09 08:30:15;;;;;;;13.05;2.75;;;;;;;11.27;46.86;100186.00;4921468;29;20036;-58
2021/12/09 08:32:40;;;;;;;8.70;2.75;;;;;;;11.32;46.43;100181.03;4938850;29;20099;-58
2021/12/09 08:35:06;;;;;;;9.90;2.58;;;;;;;11.35;46.44;100188.78;4939001;29;20040;-59
2021/12/09 08:37:32;;;;;;;6.30;2.08;;;;;;;11.34;46.17;100173.66;4938814;29;20028;-59
2021/12/09 08:39:57;;;;;;;3.40;1.90;;;;;;;11.42;47.04;100173.75;4921817;29;20034;-59
2021/12/09 08:42:24;;;;;;;9.35;2.47;;;;;;;11.55;46.41;100191.19;4922143;29;20042;-59
2021/12/09 08:44:50;;;;;;;6.22;2.10;;;;;;;11.61;46.26;100189.75;4938391;29;20027;-58
2021/12/09 08:47:15;;;;;;;5.32;2.42;;;;;;;11.61;46.19;100185.22;4938646;29;20059;-60
2021/12/09 08:49:41;;;;;;;5.85;2.03;;;;;;;11.61;46.29;100185.22;4938628;29;20028;-59
2021/12/09 08:52:06;;;;;;;6.85;2.60;;;;;;;11.70;46.69;100196.09;4921419;29;20408;-58
2021/12/09 08:54:32;;;;;;;7.68;3.35;;;;;;;11.78;46.83;100186.25;4921197;29;20060;-59
2021/12/09 08:56:58;;;;;;;5.68;2.13;;;;;;;11.88;46.32;100195.09;4938384;29;20043;-59
2021/12/09 08:59:25;;;;;;;8.98;2.75;;;;;;;11.96;46.34;100200.53;4938479;29;20028;-58
2021/12/09 09:01:51;;;;;;;8.48;3.05;;;;;;;12.00;46.72;100201.91;4938310;29;20469;-59
2021/12/09 09:04:17;;;;;;;5.82;2.20;;;;;;;12.00;46.72;100201.91;4905559;29;20039;-58
2021/12/09 09:06:54;;;;;;;7.03;2.25;;;;;;;12.03;45.97;100206.13;4938236;29;20027;-58
2021/12/09 09:09:20;;;;;;;7.20;2.08;;;;;;;11.97;46.01;100202.22;4937786;29;20099;-58
2021/12/09 09:11:45;;;;;;;15.27;2.75;;;;;;;11.98;46.79;100213.78;4938158;29;20079;-58
2021/12/09 09:14:11;;;;;;;4.07;2.15;;;;;;;11.97;46.03;100207.59;4921273;29;20039;-58
2021/12/09 09:16:38;;;;;;;9.93;3.33;;;;;;;11.94;46.51;100207.91;4905558;29;20032;-58
2021/12/09 09:19:03;;;;;;;9.70;2.17;;;;;;;11.97;46.74;100210.28;4938251;29;20015;-59
2021/12/09 09:21:29;;;;;;;5.10;2.88;;;;;;;12.00;45.66;100212.66;4921210;29;20031;-59
2021/12/09 09:23:56;;;;;;;11.65;2.28;;;;;;;12.00;45.61;100218.03;4938014;29;20040;-59
2021/12/09 09:26:21;;;;;;;4.90;2.53;;;;;;;12.02;46.51;100216.03;4921351;29;20412;-58
2021/12/09 09:28:47;;;;;;;4.68;1.90;;;;;;;12.04;46.20;100224.75;4937856;29;20031;-58
2021/12/09 09:31:13;;;;;;;14.60;1.98;;;;;;;12.02;46.12;100220.53;4937975;29;20488;-58
2021/12/09 09:33:39;;;;;;;7.22;1.90;;;;;;;11.99;46.47;100210.97;4920553;29;20023;-59
2021/12/09 09:36:04;;;;;;;3.70;2.05;;;;;;;12.03;46.43;100223.06;4889481;29;20028;-59
2021/12/09 09:38:29;;;;;;;10.52;2.60;;;;;;;12.05;46.15;100231.81;4920683;29;20110;-59
2021/12/09 09:41:09;;;;;;;7.82;2.28;;;;;;;12.08;46.49;100225.31;4905081;29;20040;-59
2021/12/09 09:43:56;;;;;;;9.70;1.92;;;;;;;12.13;46.47;100228.38;4937173;29;20023;-58
2021/12/09 09:46:28;;;;;;;6.78;2.72;;;;;;;12.16;46.58;100226.22;4923650;29;20043;-58
2021/12/09 09:48:58;;;;;;;10.18;2.78;;;;;;;12.18;46.26;100232.28;4937622;29;20032;-58
2021/12/09 09:51:25;;;;;;;4.72;1.92;;;;;;;12.17;45.93;100233.25;4937449;29;20027;-59
2021/12/09 09:53:51;;;;;;;4.18;2.10;;;;;;;12.18;46.34;100229.59;4920614;29;20036;-58
2021/12/09 09:56:19;;;;;;;4.47;2.03;;;;;;;12.23;45.74;100239.84;4920745;29;20038;-58
2021/12/09 09:58:48;;;;;;;4.20;2.00;;;;;;;12.23;45.87;100224.59;4920393;29;20108;-58
2021/12/09 10:01:14;;;;;;;12.55;2.83;;;;;;;12.26;46.11;100224.28;4920278;29;20067;-58
2021/12/09 10:03:44;;;;;;;8.88;2.45;;;;;;;12.29;46.21;100228.50;4920762;29;20548;-58
2021/12/09 10:06:10;;;;;;;7.30;2.08;;;;;;;12.34;46.04;100228.06;4938012;29;20037;-58
2021/12/09 10:08:36;;;;;;;6.13;2.38;;;;;;;12.38;45.25;100221.34;4920342;29;20086;-59
2021/12/09 10:11:02;;;;;;;6.93;2.30;;;;;;;12.46;45.81;100218.72;4936679;29;20036;-58
2021/12/09 10:13:33;;;;;;;7.97;2.28;;;;;;;12.53;45.60;100217.97;4919792;29;20123;-58
2021/12/09 10:16:01;;;;;;;3.38;1.90;;;;;;;12.60;45.69;100215.47;4937288;29;20028;-59
2021/12/09 10:18:43;;;;;;;6.78;2.20;;;;;;;12.60;46.13;100212.78;4937208;29;20023;-58
2021/12/09 10:21:11;;;;;;;3.13;2.30;;;;;;;12.65;45.79;100213.16;4937072;29;20437;-61
2021/12/09 10:23:45;;;;;;;7.13;2.25;;;;;;;12.68;46.30;100213.69;4936782;29;20040;-61
2021/12/09 10:26:20;;;;;;;9.43;2.55;;;;;;;12.72;46.01;100216.91;4936981;29;20027;-61
2021/12/09 10:28:56;;;;;;;5.63;2.45;;;;;;;12.73;45.88;100221.31;4936842;29;20473;-61
2021/12/09 10:31:25;;;;;;;6.65;2.05;;;;;;;12.70;45.88;100206.31;4919834;29;20445;-62
2021/12/09 10:34:05;;;;;;;6.15;2.40;;;;;;;12.65;45.67;100205.94;4936642;29;20079;-61
2021/12/09 10:36:39;;;;;;;3.35;2.33;;;;;;;12.62;46.16;100208.09;4936564;29;20433;-61
2021/12/09 10:39:36;;;;;;;3.20;2.00;;;;;;;12.58;45.45;100201.38;4936575;29;20071;-61
2021/12/09 10:42:08;;;;;;;3.55;1.85;;;;;;;12.57;46.38;100194.31;4936565;29;20392;-61
2021/12/09 10:44:39;;;;;;;6.03;2.53;;;;;;;12.55;46.57;100183.72;4936560;29;20477;-59
2021/12/09 10:47:15;;;;;;;12.45;2.50;;;;;;;12.60;46.54;100189.47;4936496;29;20443;-61
2021/12/09 10:49:53;;;;;;;3.92;2.13;;;;;;;12.64;46.24;100187.31;4936355;29;20036;-61
2021/12/09 10:52:37;;;;;;;5.45;2.45;;;;;;;12.65;46.07;100186.28;4936526;29;20035;-61
2021/12/09 10:55:31;;;;;;;6.25;2.42;;;;;;;12.66;45.63;100198.75;4924632;29;20166;-61
2021/12/09 10:58:00;;;;;;;8.48;2.13;;;;;;;12.66;45.88;100194.22;4938011;29;20122;-60
2021/12/09 11:00:40;;;;;;;5.38;2.85;;;;;;;12.68;46.12;100185.97;4940302;29;20507;-61
2021/12/09 11:03:15;;;;;;;2.65;1.77;;;;;;;12.65;46.28;100175.53;4940343;29;20035;-61
2021/12/09 11:05:47;;;;;;;3.80;1.98;;;;;;;12.71;46.06;100185.66;4940159;29;20035;-60
2021/12/09 11:08:18;;;;;;;3.42;1.88;;;;;;;12.76;46.44;100184.19;4940249;29;20179;-60
2021/12/09 11:10:47;;;;;;;3.42;2.35;;;;;;;12.83;46.03;100185.25;4940057;29;20031;-61
2021/12/09 11:13:18;;;;;;;5.07;2.10;;;;;;;12.84;45.66;100186.09;4939700;29;20115;-61
2021/12/09 11:15:53;;;;;;;4.35;2.83;;;;;;;12.88;46.54;100183.91;4908079;29;20091;-60
2021/12/09 11:18:37;;;;;;;4.47;1.67;;;;;;;12.89;46.26;100178.41;4940100;29;20031;-60
2021/12/09 11:21:06;;;;;;;6.68;2.35;;;;;;;12.82;46.23;100171.97;4939942;29;20028;-60
2021/12/09 11:23:42;;;;;;;6.10;2.67;;;;;;;12.80;45.75;100177.50;4940112;29;20027;-61
2021/12/09 11:26:32;;;;;;;2.38;1.60;;;;;;;12.75;46.03;100173.59;4939794;29;20083;-61